Time;durP1;ratioP1;P1;durP2;ratioP2;P2;SDS_P1;SDS_P2;PMS_P1;PMS_P2;Temp;Humidity;BMP_temperature;BMP_pressure;BME280_temperature;BME280_humidity;BME280_pressure;Samples;Min_cycle;Max_cycle;Signal;HPM_P1;HPM_P2
2023/10/20 00:01:44;;;;;;;103.87;48.87;;;;;;;;;;4974168;28;20469;-62
2023/10/20 00:04:10;;;;;;;97.63;47.90;;;;;;;;;;4974129;28;20422;-62
2023/10/20 00:06:39;;;;;;;102.23;49.27;;;;;;;;;;4974153;28;20916;-62
2023/10/20 00:09:05;;;;;;;99.20;45.73;;;;;;;;;;4974793;28;20945;-62
2023/10/20 00:11:31;;;;;;;96.80;46.30;;;;;;;;;;4974302;28;20425;-62
2023/10/20 00:13:57;;;;;;;109.40;47.40;;;;;;;;;;4974159;28;20497;-62
2023/10/20 00:16:24;;;;;;;82.23;45.20;;;;;;;;;;4974019;28;20979;-62
2023/10/20 00:18:50;;;;;;;130.53;50.23;;;;;;;;;;4974067;28;20414;-62
2023/10/20 00:21:19;;;;;;;105.80;46.80;;;;;;;;;;4973731;28;20987;-62
2023/10/20 00:23:45;;;;;;;100.03;45.97;;;;;;;;;;4973977;28;20436;-62
2023/10/20 00:26:11;;;;;;;91.73;44.30;;;;;;;;;;4974049;28;20480;-62
2023/10/20 00:28:37;;;;;;;88.03;45.67;;;;;;;;;;4974294;28;20417;-62
2023/10/20 00:31:03;;;;;;;102.57;46.77;;;;;;;;;;4973769;28;20444;-62
2023/10/20 00:33:31;;;;;;;91.27;44.77;;;;;;;;;;4974009;28;20751;-62
2023/10/20 00:35:58;;;;;;;84.43;43.60;;;;;;;;;;4973987;28;20515;-62
2023/10/20 00:38:24;;;;;;;88.47;45.70;;;;;;;;;;4973838;28;20897;-62
2023/10/20 00:40:50;;;;;;;91.03;44.30;;;;;;;;;;4973506;28;20578;-62
2023/10/20 00:43:17;;;;;;;94.23;45.17;;;;;;;;;;4973565;28;20833;-62
2023/10/20 00:45:44;;;;;;;100.47;46.43;;;;;;;;;;4974044;28;20413;-62
2023/10/20 00:48:14;;;;;;;112.47;47.93;;;;;;;;;;4973425;28;20792;-62
2023/10/20 00:50:45;;;;;;;105.20;46.30;;;;;;;;;;4972474;28;20406;-62
2023/10/20 00:53:13;;;;;;;90.47;43.37;;;;;;;;;;4973495;28;20422;-62
2023/10/20 00:55:40;;;;;;;101.80;47.23;;;;;;;;;;4973460;28;20429;-62
2023/10/20 00:58:06;;;;;;;94.27;43.57;;;;;;;;;;4973482;28;20442;-64
2023/10/20 01:00:32;;;;;;;89.77;45.13;;;;;;;;;;4973582;28;20935;-62
2023/10/20 01:02:57;;;;;;;99.60;46.73;;;;;;;;;;4973100;28;20483;-62
2023/10/20 01:05:26;;;;;;;90.90;44.90;;;;;;;;;;4973080;28;20413;-62
2023/10/20 01:07:53;;;;;;;98.73;47.10;;;;;;;;;;4973470;28;20417;-62
2023/10/20 01:10:18;;;;;;;98.40;47.93;;;;;;;;;;4973524;28;20521;-62
2023/10/20 01:12:45;;;;;;;95.17;44.40;;;;;;;;;;4977761;28;20521;-62
2023/10/20 01:15:14;;;;;;;94.10;44.27;;;;;;;;;;4977335;28;20428;-62
2023/10/20 01:17:40;;;;;;;121.90;46.50;;;;;;;;;;4977305;28;20424;-62
2023/10/20 01:20:09;;;;;;;110.47;47.60;;;;;;;;;;4977181;28;20779;-62
2023/10/20 01:22:35;;;;;;;110.43;45.73;;;;;;;;;;4977108;28;20516;-62
2023/10/20 01:25:03;;;;;;;112.20;46.07;;;;;;;;;;4977178;28;20437;-62
2023/10/20 01:27:29;;;;;;;133.33;47.60;;;;;;;;;;4977166;28;20410;-62
2023/10/20 01:29:55;;;;;;;85.83;43.50;;;;;;;;;;4976757;28;20425;-62
2023/10/20 01:32:21;;;;;;;104.03;44.93;;;;;;;;;;4977048;28;20552;-62
2023/10/20 01:34:47;;;;;;;105.17;45.03;;;;;;;;;;4976971;28;20882;-62
2023/10/20 01:37:13;;;;;;;136.67;50.23;;;;;;;;;;4977101;28;20483;-62
2023/10/20 01:39:41;;;;;;;124.00;48.77;;;;;;;;;;4975910;28;20480;-62
2023/10/20 01:42:07;;;;;;;92.27;46.10;;;;;;;;;;4976888;28;20475;-62
2023/10/20 01:44:33;;;;;;;102.33;45.90;;;;;;;;;;4976902;28;20500;-62
2023/10/20 01:47:02;;;;;;;106.37;44.90;;;;;;;;;;4976890;28;20816;-62
2023/10/20 01:49:28;;;;;;;166.43;51.63;;;;;;;;;;4976927;28;20414;-62
2023/10/20 01:51:57;;;;;;;148.23;50.00;;;;;;;;;;4976817;28;20451;-62
2023/10/20 01:54:24;;;;;;;91.07;43.83;;;;;;;;;;4976514;28;20545;-62
2023/10/20 01:56:53;;;;;;;83.50;41.83;;;;;;;;;;4976553;28;20447;-62
2023/10/20 01:59:19;;;;;;;95.87;42.33;;;;;;;;;;4976610;28;20515;-62
2023/10/20 02:01:45;;;;;;;115.63;47.27;;;;;;;;;;4976522;28;20573;-62
2023/10/20 02:04:11;;;;;;;119.27;42.77;;;;;;;;;;4976351;28;20517;-62
2023/10/20 02:06:37;;;;;;;107.30;41.73;;;;;;;;;;4976591;28;20442;-62
2023/10/20 02:09:06;;;;;;;78.97;40.00;;;;;;;;;;4975215;28;20438;-62
2023/10/20 02:11:32;;;;;;;102.70;43.80;;;;;;;;;;4976392;28;20514;-62
2023/10/20 02:13:58;;;;;;;81.67;41.63;;;;;;;;;;4976222;28;20512;-62
2023/10/20 02:16:24;;;;;;;83.93;41.77;;;;;;;;;;4976263;28;20505;-62
2023/10/20 02:18:50;;;;;;;91.40;42.63;;;;;;;;;;4976673;28;20420;-62
2023/10/20 02:21:16;;;;;;;108.30;44.00;;;;;;;;;;4976050;28;20484;-62
2023/10/20 02:23:44;;;;;;;95.20;41.50;;;;;;;;;;4975082;28;20414;-62
2023/10/20 02:26:11;;;;;;;70.63;36.63;;;;;;;;;;4976244;28;20445;-62
2023/10/20 02:28:37;;;;;;;69.53;37.20;;;;;;;;;;4976061;28;20496;-62
2023/10/20 02:31:14;;;;;;;79.70;39.73;;;;;;;;;;4976088;28;20438;-62
2023/10/20 02:33:42;;;;;;;72.00;35.83;;;;;;;;;;4976084;28;20445;-62
2023/10/20 02:36:08;;;;;;;65.93;34.50;;;;;;;;;;4975995;28;20890;-62
2023/10/20 02:38:34;;;;;;;62.67;33.33;;;;;;;;;;4975888;28;20437;-62
2023/10/20 02:41:01;;;;;;;59.60;31.93;;;;;;;;;;4975774;28;20983;-62
2023/10/20 02:43:28;;;;;;;55.77;31.90;;;;;;;;;;4975958;28;20878;-62
2023/10/20 02:45:55;;;;;;;56.30;30.80;;;;;;;;;;4975674;28;20427;-62
2023/10/20 02:48:21;;;;;;;35.67;23.37;;;;;;;;;;4975814;28;20434;-62
2023/10/20 02:50:48;;;;;;;34.13;21.77;;;;;;;;;;4975702;28;20472;-62
2023/10/20 02:53:14;;;;;;;32.37;22.37;;;;;;;;;;4975736;28;20513;-62
2023/10/20 02:55:43;;;;;;;38.67;23.40;;;;;;;;;;4975589;28;20420;-62
2023/10/20 02:58:12;;;;;;;44.00;24.27;;;;;;;;;;4975466;28;20445;-62
2023/10/20 03:00:44;;;;;;;38.30;24.60;;;;;;;;;;4975554;28;20441;-62
2023/10/20 03:03:11;;;;;;;46.13;23.87;;;;;;;;;;4975554;28;20493;-62
2023/10/20 03:05:37;;;;;;;44.23;26.90;;;;;;;;;;4975405;28;20410;-62
2023/10/20 03:08:04;;;;;;;55.87;29.30;;;;;;;;;;4975434;28;20535;-62
2023/10/20 03:10:30;;;;;;;57.43;28.03;;;;;;;;;;4975040;28;20798;-62
2023/10/20 03:12:59;;;;;;;58.47;30.00;;;;;;;;;;4975237;28;20417;-62
2023/10/20 03:15:27;;;;;;;66.30;33.40;;;;;;;;;;4975554;28;20501;-62
2023/10/20 03:17:53;;;;;;;63.10;35.50;;;;;;;;;;4975044;28;20519;-62
2023/10/20 03:20:24;;;;;;;70.00;36.10;;;;;;;;;;4974988;28;20466;-62
2023/10/20 03:22:51;;;;;;;65.50;35.37;;;;;;;;;;4974692;28;20466;-62
2023/10/20 03:25:18;;;;;;;65.23;34.53;;;;;;;;;;4974901;28;20784;-62
2023/10/20 03:27:48;;;;;;;67.73;32.37;;;;;;;;;;4974977;28;20424;-62
2023/10/20 03:30:18;;;;;;;53.53;30.00;;;;;;;;;;4974907;28;20421;-62
2023/10/20 03:32:46;;;;;;;53.57;27.33;;;;;;;;;;4974727;28;20421;-62
2023/10/20 03:35:12;;;;;;;45.33;26.57;;;;;;;;;;4974463;28;20439;-62
2023/10/20 03:37:38;;;;;;;39.33;25.43;;;;;;;;;;4974681;28;20433;-62
2023/10/20 03:40:05;;;;;;;49.30;25.70;;;;;;;;;;4974735;28;20508;-62
2023/10/20 03:42:31;;;;;;;40.70;24.57;;;;;;;;;;4974496;28;20481;-62
2023/10/20 03:44:58;;;;;;;36.07;23.50;;;;;;;;;;4974727;28;20516;-62
2023/10/20 03:47:27;;;;;;;30.50;21.43;;;;;;;;;;4974368;28;20413;-62
2023/10/20 03:49:57;;;;;;;29.77;21.80;;;;;;;;;;4957858;28;20513;-62
2023/10/20 03:52:23;;;;;;;37.67;22.40;;;;;;;;;;4974369;28;20437;-62
2023/10/20 03:54:52;;;;;;;30.63;21.27;;;;;;;;;;4974272;28;20789;-62
2023/10/20 03:57:23;;;;;;;28.53;20.43;;;;;;;;;;4973116;28;20469;-62
2023/10/20 03:59:49;;;;;;;24.77;19.40;;;;;;;;;;4973387;28;20451;-62
2023/10/20 04:02:15;;;;;;;29.33;18.27;;;;;;;;;;4974185;28;20818;-62
2023/10/20 04:04:41;;;;;;;30.83;20.20;;;;;;;;;;4974264;28;20420;-62
2023/10/20 04:07:07;;;;;;;27.17;18.83;;;;;;;;;;4974107;28;20800;-62
2023/10/20 04:09:33;;;;;;;27.13;19.70;;;;;;;;;;4972974;28;20460;-62
2023/10/20 04:11:59;;;;;;;24.83;18.30;;;;;;;;;;4974080;28;20481;-62
2023/10/20 04:14:25;;;;;;;26.20;18.13;;;;;;;;;;4974121;28;20428;-62
2023/10/20 04:16:51;;;;;;;24.70;19.10;;;;;;;;;;4974100;28;20475;-62
2023/10/20 04:19:17;;;;;;;24.87;17.30;;;;;;;;;;4973905;28;20428;-62
2023/10/20 04:21:43;;;;;;;22.97;15.80;;;;;;;;;;4974124;28;20468;-62
2023/10/20 04:24:10;;;;;;;17.53;14.87;;;;;;;;;;4973909;28;20439;-62
2023/10/20 04:26:43;;;;;;;20.50;13.93;;;;;;;;;;4973834;28;20425;-62
2023/10/20 04:53:52;;;;;;;16.13;13.77;;;;;;;;;;4973708;28;20419;-63
2023/10/20 04:56:41;;;;;;;16.60;12.50;;;;;;;;;;4970560;28;20426;-63
2023/10/20 05:04:22;;;;;;;12.10;11.00;;;;;;;;;;4973252;28;21009;-63
2023/10/20 05:06:58;;;;;;;9.30;7.90;;;;;;;;;;4973801;28;20819;-63
2023/10/20 05:09:25;;;;;;;9.48;8.57;;;;;;;;;;4971799;28;20402;-63
2023/10/20 05:11:51;;;;;;;7.60;7.03;;;;;;;;;;4973167;28;20195;-64
2023/10/20 05:14:17;;;;;;;7.27;6.80;;;;;;;;;;4973297;28;20413;-63
2023/10/20 05:16:43;;;;;;;6.30;6.00;;;;;;;;;;4972835;28;20497;-63
2023/10/20 05:19:10;;;;;;;6.70;6.10;;;;;;;;;;4973135;28;20564;-63
2023/10/20 05:21:38;;;;;;;12.73;11.43;;;;;;;;;;4973011;28;20471;-63
2023/10/20 05:24:08;;;;;;;6.60;5.87;;;;;;;;;;4973008;28;20418;-63
2023/10/20 05:26:34;;;;;;;6.13;5.53;;;;;;;;;;4972732;28;20424;-63
2023/10/20 05:29:01;;;;;;;5.77;5.13;;;;;;;;;;4972595;28;20414;-63
2023/10/20 05:31:29;;;;;;;6.20;5.87;;;;;;;;;;4972915;28;20413;-63
2023/10/20 05:33:55;;;;;;;11.77;10.77;;;;;;;;;;4973059;28;20441;-63
2023/10/20 05:36:21;;;;;;;6.17;5.77;;;;;;;;;;4972482;28;20469;-64
2023/10/20 05:38:47;;;;;;;7.13;6.73;;;;;;;;;;4972753;28;20892;-63
2023/10/20 05:41:15;;;;;;;8.00;7.27;;;;;;;;;;4972741;28;20399;-64
2023/10/20 05:43:41;;;;;;;7.53;7.07;;;;;;;;;;4971186;28;20421;-64
2023/10/20 05:46:14;;;;;;;8.43;7.63;;;;;;;;;;4972509;28;20778;-64
2023/10/20 05:48:44;;;;;;;7.50;7.00;;;;;;;;;;4972446;28;20995;-64
2023/10/20 05:51:15;;;;;;;9.80;7.40;;;;;;;;;;4972464;28;20488;-63
2023/10/20 05:53:44;;;;;;;10.70;9.87;;;;;;;;;;4973297;28;20495;-63
2023/10/20 05:56:09;;;;;;;8.07;7.57;;;;;;;;;;4973270;28;20460;-63
2023/10/20 05:58:37;;;;;;;7.13;6.73;;;;;;;;;;4976252;28;20500;-63
2023/10/20 06:01:06;;;;;;;5.97;5.77;;;;;;;;;;4976909;28;20456;-63
2023/10/20 06:03:35;;;;;;;7.50;6.73;;;;;;;;;;4976812;28;20437;-63
2023/10/20 06:06:03;;;;;;;8.63;6.97;;;;;;;;;;4976609;28;20417;-63
2023/10/20 06:08:29;;;;;;;9.03;8.13;;;;;;;;;;4974904;28;20456;-63
2023/10/20 06:11:05;;;;;;;12.57;9.93;;;;;;;;;;4976462;28;20496;-63
2023/10/20 06:13:35;;;;;;;14.00;11.07;;;;;;;;;;4976278;28;20447;-63
2023/10/20 06:16:08;;;;;;;16.73;13.10;;;;;;;;;;4976388;28;20417;-63
2023/10/20 06:18:37;;;;;;;24.20;18.40;;;;;;;;;;4975067;28;20443;-63
2023/10/20 06:21:06;;;;;;;32.00;20.27;;;;;;;;;;4976468;28;20412;-63
2023/10/20 06:23:33;;;;;;;30.47;22.43;;;;;;;;;;4976098;28;20450;-63
2023/10/20 06:26:01;;;;;;;38.00;24.83;;;;;;;;;;4976313;28;20407;-63
2023/10/20 06:28:27;;;;;;;44.50;27.50;;;;;;;;;;4976081;28;20428;-63
2023/10/20 06:30:54;;;;;;;47.27;29.27;;;;;;;;;;4976196;28;20425;-63
2023/10/20 06:33:25;;;;;;;45.00;27.77;;;;;;;;;;4975928;28;20492;-63
2023/10/20 06:35:51;;;;;;;46.77;29.80;;;;;;;;;;4975716;28;20408;-61
2023/10/20 06:38:37;;;;;;;41.47;29.53;;;;;;;;;;4974885;28;20451;-63
2023/10/20 06:41:06;;;;;;;45.20;29.03;;;;;;;;;;4976053;28;20409;-63
2023/10/20 06:43:32;;;;;;;41.83;31.27;;;;;;;;;;4975607;28;20463;-63
2023/10/20 06:45:59;;;;;;;41.93;31.03;;;;;;;;;;4975707;28;20903;-65
2023/10/20 06:48:26;;;;;;;45.37;31.33;;;;;;;;;;4975383;28;20455;-63
2023/10/20 06:50:52;;;;;;;48.57;31.50;;;;;;;;;;4975409;28;20409;-63
2023/10/20 06:53:21;;;;;;;48.20;32.23;;;;;;;;;;4975099;28;20420;-62
2023/10/20 06:55:49;;;;;;;49.37;33.67;;;;;;;;;;4974374;28;20496;-63
2023/10/20 06:58:19;;;;;;;52.57;32.87;;;;;;;;;;4975436;28;20498;-63
2023/10/20 07:00:48;;;;;;;41.67;32.00;;;;;;;;;;4975591;28;20452;-63
2023/10/20 07:03:14;;;;;;;48.67;34.83;;;;;;;;;;4975259;28;20476;-63
2023/10/20 07:05:43;;;;;;;48.17;34.33;;;;;;;;;;4975138;28;20423;-63
2023/10/20 07:08:13;;;;;;;53.30;35.20;;;;;;;;;;4974829;28;20421;-63
2023/10/20 07:10:42;;;;;;;51.27;34.57;;;;;;;;;;4975362;28;20410;-62
2023/10/20 07:13:10;;;;;;;49.50;34.20;;;;;;;;;;4974373;28;20428;-63
2023/10/20 07:15:36;;;;;;;53.23;35.57;;;;;;;;;;4974958;28;20417;-63
2023/10/20 07:18:03;;;;;;;49.63;33.00;;;;;;;;;;4975280;28;20417;-63
2023/10/20 07:20:33;;;;;;;56.53;34.70;;;;;;;;;;4975147;28;20437;-63
2023/10/20 07:22:59;;;;;;;52.63;34.10;;;;;;;;;;4974819;28;20884;-63
2023/10/20 07:25:26;;;;;;;50.80;32.33;;;;;;;;;;4974873;28;20915;-63
2023/10/20 07:27:52;;;;;;;49.03;32.30;;;;;;;;;;4975133;28;20416;-63
2023/10/20 07:30:19;;;;;;;57.50;34.77;;;;;;;;;;4973463;28;20461;-63
2023/10/20 07:32:46;;;;;;;52.20;32.30;;;;;;;;;;4973472;28;20983;-63
2023/10/20 07:35:12;;;;;;;47.50;32.40;;;;;;;;;;4974790;28;20428;-63
2023/10/20 07:37:38;;;;;;;47.10;31.00;;;;;;;;;;4975033;28;20429;-63
2023/10/20 07:40:05;;;;;;;42.90;30.50;;;;;;;;;;4974924;28;20524;-63
2023/10/20 07:42:31;;;;;;;36.90;27.70;;;;;;;;;;4974736;28;20516;-63
2023/10/20 07:44:58;;;;;;;37.50;26.30;;;;;;;;;;4974575;28;20787;-63
2023/10/20 07:47:25;;;;;;;26.77;22.67;;;;;;;;;;4974690;28;20421;-63
2023/10/20 07:49:51;;;;;;;18.47;16.50;;;;;;;;;;4974685;28;20429;-63
2023/10/20 07:52:17;;;;;;;18.23;16.00;;;;;;;;;;4974762;28;20763;-63
2023/10/20 07:54:44;;;;;;;16.90;15.30;;;;;;;;;;4974548;28;20445;-63
2023/10/20 07:57:10;;;;;;;17.33;15.50;;;;;;;;;;4974648;28;20760;-63
2023/10/20 07:59:36;;;;;;;14.83;13.40;;;;;;;;;;4974484;28;20528;-63
2023/10/20 08:02:05;;;;;;;13.83;12.47;;;;;;;;;;4974525;28;20966;-63
2023/10/20 08:04:31;;;;;;;12.97;11.97;;;;;;;;;;4974373;28;20415;-63
2023/10/20 08:06:59;;;;;;;11.27;9.13;;;;;;;;;;4974526;28;20480;-63
2023/10/20 08:09:27;;;;;;;9.73;9.00;;;;;;;;;;4974408;28;20441;-63
2023/10/20 08:11:53;;;;;;;9.23;8.33;;;;;;;;;;4974145;28;20435;-63
2023/10/20 08:14:20;;;;;;;8.50;7.90;;;;;;;;;;4973991;28;20782;-63
2023/10/20 08:16:49;;;;;;;6.40;6.13;;;;;;;;;;4974143;28;20791;-63
2023/10/20 08:19:15;;;;;;;8.87;7.93;;;;;;;;;;4974369;28;20801;-63
2023/10/20 08:21:43;;;;;;;8.23;7.50;;;;;;;;;;4972680;28;20482;-63
2023/10/20 08:24:10;;;;;;;7.80;6.90;;;;;;;;;;4972939;28;20467;-63
2023/10/20 08:26:36;;;;;;;6.53;6.23;;;;;;;;;;4974252;28;20913;-63
2023/10/20 08:29:05;;;;;;;7.90;7.20;;;;;;;;;;4973978;28;20426;-63
2023/10/20 08:31:31;;;;;;;8.17;7.37;;;;;;;;;;4974320;28;20434;-63
2023/10/20 08:33:57;;;;;;;8.00;7.23;;;;;;;;;;4973999;28;20917;-63
2023/10/20 08:36:23;;;;;;;6.90;6.50;;;;;;;;;;4973900;28;20425;-63
2023/10/20 08:38:50;;;;;;;5.67;5.27;;;;;;;;;;4972470;28;20445;-63
2023/10/20 08:41:17;;;;;;;4.73;4.50;;;;;;;;;;4973358;28;20913;-63
2023/10/20 08:43:44;;;;;;;3.97;3.57;;;;;;;;;;4973634;28;20418;-63
2023/10/20 08:46:14;;;;;;;2.30;2.30;;;;;;;;;;4973696;28;20620;-64
2023/10/20 08:48:40;;;;;;;1.97;1.87;;;;;;;;;;4973612;28;20882;-63
2023/10/20 08:51:07;;;;;;;7.70;2.33;;;;;;;;;;4973700;28;20490;-63
2023/10/20 08:53:34;;;;;;;4.97;1.67;;;;;;;;;;4974072;28;20427;-63
2023/10/20 08:56:01;;;;;;;1.27;1.27;;;;;;;;;;4973990;28;20510;-64
2023/10/20 08:58:29;;;;;;;2.10;1.47;;;;;;;;;;4973467;28;20435;-64
2023/10/20 09:00:55;;;;;;;1.00;1.00;;;;;;;;;;4973441;28;20441;-64
2023/10/20 09:03:21;;;;;;;3.23;1.20;;;;;;;;;;4973169;28;20477;-64
2023/10/20 09:05:48;;;;;;;1.63;1.53;;;;;;;;;;4973390;28;20449;-64
2023/10/20 09:08:14;;;;;;;5.80;4.70;;;;;;;;;;4973473;28;20660;-64
2023/10/20 09:10:43;;;;;;;13.00;8.80;;;;;;;;;;4973758;28;20938;-63
2023/10/20 09:13:09;;;;;;;1.63;1.53;;;;;;;;;;4973331;28;20426;-64
2023/10/20 09:15:35;;;;;;;1.57;1.00;;;;;;;;;;4973769;28;20446;-63
2023/10/20 09:18:01;;;;;;;2.10;1.50;;;;;;;;;;4973402;28;20969;-64
2023/10/20 09:20:27;;;;;;;2.00;1.90;;;;;;;;;;4973496;28;20453;-64
2023/10/20 09:22:55;;;;;;;2.43;1.10;;;;;;;;;;4973122;28;20470;-64
2023/10/20 09:25:21;;;;;;;1.37;1.37;;;;;;;;;;4973148;28;20521;-63
2023/10/20 09:27:47;;;;;;;1.83;1.40;;;;;;;;;;4973333;28;20921;-63
2023/10/20 09:30:16;;;;;;;1.37;1.37;;;;;;;;;;4973357;28;20426;-64
2023/10/20 09:32:42;;;;;;;1.60;1.60;;;;;;;;;;4975254;28;20912;-64
2023/10/20 09:35:10;;;;;;;1.67;1.50;;;;;;;;;;4976918;28;20438;-64
2023/10/20 09:37:37;;;;;;;4.53;1.50;;;;;;;;;;4977043;28;20513;-63
2023/10/20 09:40:06;;;;;;;5.90;1.50;;;;;;;;;;4976589;28;20899;-64
2023/10/20 09:42:41;;;;;;;1.43;1.30;;;;;;;;;;4977026;28;20465;-64
2023/10/20 09:45:14;;;;;;;1.27;1.17;;;;;;;;;;4976590;28;20433;-64
2023/10/20 09:47:43;;;;;;;1.40;1.40;;;;;;;;;;4976812;28;20409;-64
2023/10/20 09:50:11;;;;;;;1.20;1.20;;;;;;;;;;4976570;28;20443;-63
2023/10/20 09:52:39;;;;;;;1.73;1.63;;;;;;;;;;4976719;28;20477;-64
2023/10/20 09:55:05;;;;;;;2.70;1.83;;;;;;;;;;4975281;28;20429;-64
2023/10/20 09:57:31;;;;;;;2.20;1.30;;;;;;;;;;4976702;28;20438;-64
2023/10/20 09:59:57;;;;;;;1.30;1.30;;;;;;;;;;4975080;28;20430;-64
2023/10/20 10:02:27;;;;;;;1.60;1.60;;;;;;;;;;4976500;28;20469;-64
2023/10/20 10:04:54;;;;;;;2.07;1.70;;;;;;;;;;4976383;28;20559;-63
2023/10/20 10:07:36;;;;;;;2.20;2.10;;;;;;;;;;4975258;28;20953;-64
2023/10/20 10:10:02;;;;;;;52.40;28.57;;;;;;;;;;4976784;28;20426;-64
2023/10/20 10:12:29;;;;;;;3.80;2.37;;;;;;;;;;4975930;28;20463;-64
2023/10/20 10:14:59;;;;;;;3.87;2.67;;;;;;;;;;4976662;28;20418;-63
2023/10/20 10:17:28;;;;;;;42.27;23.77;;;;;;;;;;4976370;28;20418;-64
2023/10/20 10:19:55;;;;;;;6.03;5.63;;;;;;;;;;4976818;28;20418;-64
2023/10/20 10:22:31;;;;;;;1.70;1.60;;;;;;;;;;4974940;28;20486;-63
2023/10/20 10:24:57;;;;;;;3.43;1.30;;;;;;;;;;4974943;28;20434;-63
2023/10/20 10:27:32;;;;;;;1.20;1.20;;;;;;;;;;4974797;28;20430;-63
2023/10/20 10:30:00;;;;;;;0.97;0.97;;;;;;;;;;4976381;28;20463;-63
2023/10/20 10:32:31;;;;;;;1.00;1.00;;;;;;;;;;4974872;28;20531;-63
2023/10/20 10:34:58;;;;;;;0.73;0.73;;;;;;;;;;4976148;28;20412;-63
2023/10/20 10:37:27;;;;;;;1.23;1.10;;;;;;;;;;4975978;28;20569;-63
2023/10/20 10:39:53;;;;;;;1.00;1.00;;;;;;;;;;4976270;28;20418;-64
2023/10/20 10:42:22;;;;;;;0.93;0.93;;;;;;;;;;4975649;28;20802;-63
2023/10/20 10:44:48;;;;;;;0.90;0.90;;;;;;;;;;4974917;28;20423;-63
2023/10/20 10:47:22;;;;;;;0.70;0.70;;;;;;;;;;4974500;28;20948;-63
2023/10/20 10:49:49;;;;;;;0.70;0.70;;;;;;;;;;4975891;28;20424;-62
2023/10/20 10:52:16;;;;;;;0.80;0.80;;;;;;;;;;4975773;28;20796;-64
2023/10/20 10:54:43;;;;;;;0.60;0.60;;;;;;;;;;4975981;28;20457;-63
2023/10/20 10:57:09;;;;;;;0.73;0.73;;;;;;;;;;4975618;28;20883;-63
2023/10/20 10:59:38;;;;;;;1.07;0.80;;;;;;;;;;4975703;28;20415;-63
2023/10/20 11:02:06;;;;;;;0.73;0.73;;;;;;;;;;4975589;28;20580;-63
2023/10/20 11:04:33;;;;;;;3.17;0.80;;;;;;;;;;4975451;28;20466;-64
2023/10/20 11:06:59;;;;;;;0.80;0.80;;;;;;;;;;4975492;28;20449;-63
2023/10/20 11:09:29;;;;;;;0.70;0.70;;;;;;;;;;4974162;28;20434;-63
2023/10/20 11:11:56;;;;;;;0.80;0.80;;;;;;;;;;4975504;28;20446;-64
2023/10/20 11:14:25;;;;;;;1.13;1.03;;;;;;;;;;4975314;28;20419;-63
2023/10/20 11:16:51;;;;;;;1.77;0.87;;;;;;;;;;4975363;28;20465;-63
2023/10/20 11:19:17;;;;;;;7.40;6.80;;;;;;;;;;4975262;28;20450;-64
2023/10/20 11:21:47;;;;;;;1.00;0.57;;;;;;;;;;4975198;28;20534;-63
2023/10/20 11:24:34;;;;;;;0.50;0.50;;;;;;;;;;4975292;28;20414;-63
2023/10/20 11:27:05;;;;;;;2.13;2.03;;;;;;;;;;4975185;28;20442;-63
2023/10/20 11:29:31;;;;;;;0.50;0.50;;;;;;;;;;4975032;28;20421;-64
2023/10/20 11:32:05;;;;;;;0.50;0.50;;;;;;;;;;4974940;28;20768;-64
2023/10/20 11:34:31;;;;;;;0.53;0.53;;;;;;;;;;4974934;28;20429;-63
2023/10/20 11:37:00;;;;;;;0.60;0.60;;;;;;;;;;4974917;28;20438;-63
2023/10/20 11:39:27;;;;;;;0.50;0.50;;;;;;;;;;4974862;28;20447;-63
2023/10/20 11:41:54;;;;;;;1.60;0.73;;;;;;;;;;4973540;28;20520;-63
2023/10/20 11:44:20;;;;;;;0.70;0.70;;;;;;;;;;4974822;28;20924;-63
2023/10/20 11:46:47;;;;;;;1.23;0.70;;;;;;;;;;4974733;28;20785;-63
2023/10/20 11:49:15;;;;;;;0.50;0.50;;;;;;;;;;4973431;28;20521;-64
2023/10/20 11:51:41;;;;;;;0.50;0.50;;;;;;;;;;4974675;28;20442;-64
2023/10/20 11:54:07;;;;;;;0.50;0.40;;;;;;;;;;4974800;28;20468;-64
2023/10/20 11:56:36;;;;;;;1.70;0.60;;;;;;;;;;4974081;28;21096;-64
2023/10/20 11:59:02;;;;;;;1.90;0.50;;;;;;;;;;4973398;28;20963;-63
2023/10/20 12:01:31;;;;;;;2.67;0.47;;;;;;;;;;4974278;28;20433;-62
2023/10/20 12:03:57;;;;;;;0.50;0.50;;;;;;;;;;4974601;28;20814;-62
2023/10/20 12:06:23;;;;;;;1.17;0.47;;;;;;;;;;4974427;28;20496;-62
2023/10/20 12:08:52;;;;;;;1.10;1.00;;;;;;;;;;4974432;28;20438;-64
2023/10/20 12:11:20;;;;;;;3.40;1.63;;;;;;;;;;4974276;28;20417;-64
2023/10/20 12:13:49;;;;;;;0.97;0.70;;;;;;;;;;4974026;28;20414;-64
2023/10/20 12:16:19;;;;;;;0.50;0.50;;;;;;;;;;4974220;28;20424;-64
2023/10/20 12:18:46;;;;;;;0.60;0.60;;;;;;;;;;4974239;28;20413;-63
2023/10/20 12:21:12;;;;;;;0.50;0.50;;;;;;;;;;4974188;28;20476;-63
2023/10/20 12:23:38;;;;;;;0.60;0.60;;;;;;;;;;4973927;28;20476;-63
2023/10/20 12:26:04;;;;;;;0.60;0.50;;;;;;;;;;4974239;28;20420;-63
2023/10/20 12:28:33;;;;;;;0.40;0.40;;;;;;;;;;4974209;28;20480;-63
2023/10/20 12:31:02;;;;;;;1.43;0.60;;;;;;;;;;4973965;28;20828;-63
2023/10/20 12:33:28;;;;;;;0.80;0.80;;;;;;;;;;4974075;28;20424;-62
2023/10/20 12:35:54;;;;;;;0.90;0.40;;;;;;;;;;4973967;28;20425;-63
2023/10/20 12:38:23;;;;;;;0.30;0.30;;;;;;;;;;4974076;28;20415;-63
2023/10/20 12:40:49;;;;;;;0.60;0.50;;;;;;;;;;4973955;28;20430;-62
2023/10/20 12:43:16;;;;;;;0.50;0.50;;;;;;;;;;4973804;28;20481;-62
2023/10/20 12:45:42;;;;;;;0.50;0.50;;;;;;;;;;4973687;28;20449;-62
2023/10/20 12:48:08;;;;;;;0.50;0.50;;;;;;;;;;4973887;28;20457;-62
2023/10/20 12:50:36;;;;;;;0.40;0.40;;;;;;;;;;4973985;28;20465;-62
2023/10/20 12:53:02;;;;;;;0.40;0.40;;;;;;;;;;4973807;28;20901;-62
2023/10/20 12:55:30;;;;;;;0.40;0.40;;;;;;;;;;4974086;28;20430;-62
2023/10/20 12:57:56;;;;;;;0.40;0.40;;;;;;;;;;4973685;28;21016;-62
2023/10/20 13:00:25;;;;;;;0.30;0.30;;;;;;;;;;4973824;28;20903;-62
2023/10/20 13:02:52;;;;;;;1.60;1.50;;;;;;;;;;4973561;28;20514;-62
2023/10/20 13:05:21;;;;;;;0.50;0.50;;;;;;;;;;4973838;28;20403;-62
2023/10/20 13:07:47;;;;;;;0.60;0.50;;;;;;;;;;4976193;28;20444;-62
2023/10/20 13:10:13;;;;;;;0.80;0.50;;;;;;;;;;4976466;28;20418;-62
2023/10/20 13:12:39;;;;;;;0.47;0.47;;;;;;;;;;4977903;28;20857;-62
2023/10/20 13:15:06;;;;;;;2.90;0.70;;;;;;;;;;4976309;28;20484;-62
2023/10/20 13:17:34;;;;;;;0.30;0.30;;;;;;;;;;4977497;28;20484;-63
2023/10/20 13:20:03;;;;;;;0.40;0.40;;;;;;;;;;4977239;28;20450;-62
2023/10/20 13:22:30;;;;;;;0.43;0.43;;;;;;;;;;4977126;28;20466;-62
2023/10/20 13:24:56;;;;;;;0.60;0.50;;;;;;;;;;4977447;28;20412;-62
2023/10/20 13:27:22;;;;;;;0.50;0.50;;;;;;;;;;4977213;28;20407;-62
2023/10/20 13:29:48;;;;;;;0.40;0.40;;;;;;;;;;4977281;28;20896;-61
2023/10/20 13:32:14;;;;;;;0.50;0.40;;;;;;;;;;4977095;28;20415;-62
2023/10/20 13:34:42;;;;;;;1.23;1.23;;;;;;;;;;4977261;28;20776;-62
2023/10/20 13:37:09;;;;;;;0.57;0.57;;;;;;;;;;4976915;28;20874;-62
2023/10/20 13:39:35;;;;;;;0.70;0.70;;;;;;;;;;4977064;28;20407;-62
2023/10/20 13:42:04;;;;;;;0.57;0.50;;;;;;;;;;4976927;28;21008;-62
2023/10/20 13:44:30;;;;;;;0.70;0.70;;;;;;;;;;4977185;28;20476;-62
2023/10/20 13:46:56;;;;;;;0.73;0.50;;;;;;;;;;4976985;28;20896;-62
2023/10/20 13:49:25;;;;;;;0.50;0.50;;;;;;;;;;4977245;28;20422;-62
2023/10/20 13:51:53;;;;;;;0.70;0.70;;;;;;;;;;4976779;28;20864;-62
2023/10/20 13:54:19;;;;;;;2.40;0.40;;;;;;;;;;4976675;28;20524;-62
2023/10/20 13:56:46;;;;;;;0.50;0.50;;;;;;;;;;4976446;28;20952;-62
2023/10/20 13:59:12;;;;;;;0.67;0.67;;;;;;;;;;4976608;28;20436;-62
2023/10/20 14:01:38;;;;;;;1.33;1.33;;;;;;;;;;4976534;28;20765;-62
2023/10/20 14:04:06;;;;;;;7.47;0.73;;;;;;;;;;4975005;28;21015;-62
2023/10/20 14:06:33;;;;;;;0.60;0.57;;;;;;;;;;4976422;28;20558;-62
2023/10/20 14:08:59;;;;;;;1.60;0.60;;;;;;;;;;4974644;28;20449;-62
2023/10/20 14:11:25;;;;;;;0.43;0.43;;;;;;;;;;4976066;28;20540;-62
2023/10/20 14:13:51;;;;;;;1.20;0.60;;;;;;;;;;4976375;28;20443;-62
2023/10/20 14:16:16;;;;;;;0.50;0.50;;;;;;;;;;4976122;28;20425;-62
2023/10/20 14:18:45;;;;;;;3.23;0.57;;;;;;;;;;4975961;28;20445;-62
2023/10/20 14:21:12;;;;;;;4.10;0.50;;;;;;;;;;4976015;28;20481;-60
2023/10/20 14:23:38;;;;;;;0.63;0.60;;;;;;;;;;4976063;28;20532;-62
2023/10/20 14:26:04;;;;;;;1.10;0.73;;;;;;;;;;4976266;28;20420;-62
2023/10/20 14:28:33;;;;;;;0.80;0.80;;;;;;;;;;4975342;28;20506;-62
2023/10/20 14:31:02;;;;;;;0.50;0.50;;;;;;;;;;4975666;28;20466;-62
2023/10/20 14:33:28;;;;;;;1.27;0.60;;;;;;;;;;4975673;28;20775;-62
2023/10/20 14:35:57;;;;;;;2.10;0.60;;;;;;;;;;4975685;28;20847;-62
2023/10/20 14:38:23;;;;;;;0.53;0.53;;;;;;;;;;4974081;28;20433;-62
2023/10/20 14:41:07;;;;;;;0.70;0.70;;;;;;;;;;4974292;28;20527;-62
2023/10/20 14:43:34;;;;;;;0.70;0.70;;;;;;;;;;4975888;28;20565;-62
2023/10/20 14:46:01;;;;;;;1.27;0.80;;;;;;;;;;4975541;28;20441;-62
2023/10/20 14:48:27;;;;;;;0.70;0.70;;;;;;;;;;4975500;28;20422;-64
2023/10/20 14:50:53;;;;;;;0.70;0.70;;;;;;;;;;4975285;28;20533;-61
2023/10/20 14:53:22;;;;;;;0.80;0.80;;;;;;;;;;4975416;28;20423;-62
2023/10/20 14:55:48;;;;;;;0.50;0.50;;;;;;;;;;4974940;28;20947;-62
2023/10/20 14:58:14;;;;;;;0.40;0.40;;;;;;;;;;4973895;28;20443;-63
2023/10/20 15:00:49;;;;;;;0.50;0.50;;;;;;;;;;4972666;28;20496;-62
2023/10/20 15:03:16;;;;;;;2.50;0.63;;;;;;;;;;4973105;28;20476;-62